Time;durP1;ratioP1;P1;durP2;ratioP2;P2;SDS_P1;SDS_P2;PMS_P1;PMS_P2;Temp;Humidity;BMP_temperature;BMP_pressure;BME280_temperature;BME280_humidity;BME280_pressure;Samples;Min_cycle;Max_cycle;Signal;HPM_P1;HPM_P2
2023/01/18 04:56:35;;;;;;;2.95;2.85;;;-2.30;99.90;;;;;;5606394;23;20224;-75
2023/01/18 04:59:01;;;;;;;3.35;3.05;;;-2.20;99.90;;;;;;4956223;29;20220;-75
2023/01/18 05:01:28;;;;;;;3.25;2.97;;;-2.10;99.90;;;;;;4956560;29;20352;-75
2023/01/18 05:03:55;;;;;;;3.33;2.97;;;-2.00;99.90;;;;;;4956154;29;20300;-76
2023/01/18 05:06:22;;;;;;;2.90;2.75;;;-1.90;99.90;;;;;;4956099;29;20231;-76
2023/01/18 05:08:49;;;;;;;3.33;3.13;;;-1.80;99.90;;;;;;4956007;28;20212;-77
2023/01/18 05:11:18;;;;;;;3.65;3.45;;;-1.70;99.90;;;;;;4957579;29;20203;-76
2023/01/18 05:13:46;;;;;;;3.58;3.30;;;-1.60;99.90;;;;;;4956800;29;20215;-77
2023/01/18 05:16:15;;;;;;;3.45;3.17;;;-1.60;99.90;;;;;;4956411;29;20250;-77
2023/01/18 05:18:42;;;;;;;3.72;3.47;;;-1.60;99.90;;;;;;4957259;29;20204;-75
2023/01/18 05:21:10;;;;;;;3.70;3.40;;;-1.50;99.90;;;;;;4956706;29;20222;-77
2023/01/18 05:23:38;;;;;;;3.38;3.08;;;-1.50;99.90;;;;;;4955834;29;20188;-77
2023/01/18 05:26:12;;;;;;;4.45;3.88;;;-1.50;99.90;;;;;;4955883;29;20303;-76
2023/01/18 05:28:39;;;;;;;3.33;3.03;;;-1.50;99.90;;;;;;4955670;29;20199;-76
2023/01/18 05:31:08;;;;;;;2.90;2.70;;;-1.40;99.90;;;;;;4956008;29;20204;-76
2023/01/18 05:33:34;;;;;;;4.50;4.10;;;-1.40;99.90;;;;;;4955987;29;20210;-78
2023/01/18 05:36:01;;;;;;;6.28;4.72;;;-1.40;99.90;;;;;;4955387;29;20707;-76
2023/01/18 05:38:28;;;;;;;6.15;4.82;;;-1.40;99.90;;;;;;4955572;29;20207;-76
2023/01/18 05:40:55;;;;;;;5.38;4.85;;;-1.40;99.90;;;;;;4955570;29;20223;-76
2023/01/18 05:43:22;;;;;;;10.98;7.10;;;-1.40;99.90;;;;;;4955461;29;20230;-76
2023/01/18 05:45:49;;;;;;;8.88;5.88;;;-1.50;99.90;;;;;;4955347;29;20232;-75
2023/01/18 05:48:18;;;;;;;7.40;5.50;;;-1.50;99.90;;;;;;4955534;29;20204;-75
2023/01/18 05:50:47;;;;;;;6.22;5.43;;;-1.40;99.90;;;;;;4967288;29;20200;-79
2023/01/18 05:53:16;;;;;;;4.50;4.03;;;-1.40;99.90;;;;;;4969591;29;20236;-79
2023/01/18 05:55:43;;;;;;;6.45;3.50;;;-1.40;99.90;;;;;;4969170;29;20204;-80
2023/01/18 05:58:10;;;;;;;4.65;3.67;;;-1.30;99.90;;;;;;4969361;29;20211;-79
2023/01/18 06:00:37;;;;;;;3.40;3.20;;;-1.30;99.90;;;;;;4970607;29;20219;-79
2023/01/18 06:03:04;;;;;;;3.60;3.25;;;-1.30;99.90;;;;;;4969262;29;20208;-79
2023/01/18 06:05:32;;;;;;;2.63;2.47;;;-1.20;99.90;;;;;;4969068;29;20223;-80
2023/01/18 06:07:58;;;;;;;2.08;2.08;;;-1.20;99.90;;;;;;4969938;29;20196;-79
2023/01/18 06:10:25;;;;;;;2.05;2.05;;;-1.10;99.90;;;;;;4969952;29;20329;-79
2023/01/18 06:12:52;;;;;;;2.40;2.30;;;-1.10;99.90;;;;;;4969910;29;20195;-79
2023/01/18 06:15:19;;;;;;;1.67;1.67;;;-1.10;99.90;;;;;;4969778;29;20202;-79
2023/01/18 06:17:46;;;;;;;5.30;4.85;;;-1.00;99.90;;;;;;4969707;29;20232;-79
2023/01/18 06:20:13;;;;;;;4.82;3.65;;;-1.00;99.90;;;;;;4972005;28;20232;-79
2023/01/18 06:22:41;;;;;;;3.97;3.38;;;-1.00;99.90;;;;;;4972840;29;20203;-79
2023/01/18 06:25:09;;;;;;;6.20;4.50;;;-1.00;99.90;;;;;;4973023;29;20204;-79
2023/01/18 06:27:36;;;;;;;5.10;4.70;;;-1.00;99.90;;;;;;4972009;29;20224;-79
2023/01/18 06:30:05;;;;;;;6.03;4.07;;;-1.00;99.90;;;;;;4973518;29;20211;-79
2023/01/18 06:32:31;;;;;;;6.38;4.30;;;-0.90;99.90;;;;;;4972356;29;20291;-79
2023/01/18 06:34:58;;;;;;;3.75;3.40;;;-0.90;99.90;;;;;;4972596;29;20207;-79
2023/01/18 06:37:25;;;;;;;2.78;2.53;;;-0.90;99.90;;;;;;4972794;29;20216;-79
2023/01/18 06:39:53;;;;;;;2.00;2.00;;;-0.90;99.90;;;;;;4972029;29;20200;-79
2023/01/18 06:42:20;;;;;;;1.95;1.83;;;-0.90;99.90;;;;;;4972915;29;20211;-79
2023/01/18 06:44:47;;;;;;;1.42;1.42;;;-0.90;99.90;;;;;;4982481;28;20191;-79
2023/01/18 06:47:17;;;;;;;1.35;1.25;;;-0.90;99.90;;;;;;4982691;29;20208;-80
2023/01/18 06:49:44;;;;;;;1.02;1.02;;;-0.90;99.90;;;;;;4977275;28;20192;-79
2023/01/18 06:52:10;;;;;;;1.30;1.30;;;-0.90;99.90;;;;;;4971361;29;20204;-79
2023/01/18 06:54:37;;;;;;;1.15;1.15;;;-0.90;99.90;;;;;;4968348;29;20543;-79
2023/01/18 06:57:06;;;;;;;1.10;1.10;;;-0.90;99.90;;;;;;4967533;29;20224;-79
2023/01/18 06:59:32;;;;;;;0.70;0.70;;;-0.90;99.90;;;;;;4967924;29;20249;-79
2023/01/18 07:01:59;;;;;;;1.20;1.10;;;-0.90;99.90;;;;;;4968169;29;20228;-79
2023/01/18 07:04:26;;;;;;;2.63;0.85;;;-0.90;99.90;;;;;;4971935;29;20295;-79
2023/01/18 07:06:52;;;;;;;1.30;1.20;;;-0.80;99.90;;;;;;4960447;29;20224;-77
2023/01/18 07:09:19;;;;;;;1.40;1.30;;;-0.80;99.90;;;;;;4960797;29;20211;-79
2023/01/18 07:11:46;;;;;;;1.60;1.48;;;-0.80;99.90;;;;;;4971177;29;20215;-80
2023/01/18 07:14:14;;;;;;;1.40;1.30;;;-0.70;99.90;;;;;;4974420;29;20188;-80
2023/01/18 07:16:41;;;;;;;1.00;1.00;;;-0.80;99.90;;;;;;4982366;28;20216;-80
2023/01/18 07:19:08;;;;;;;1.10;0.90;;;-0.80;99.90;;;;;;4979127;28;20201;-78
2023/01/18 07:21:34;;;;;;;0.90;0.90;;;-0.80;99.90;;;;;;4967331;29;20224;-78
2023/01/18 07:24:01;;;;;;;1.00;1.00;;;-0.80;99.90;;;;;;4966223;29;20211;-77
2023/01/18 07:26:28;;;;;;;1.00;1.00;;;-0.90;99.90;;;;;;4959144;29;20220;-78
2023/01/18 07:28:55;;;;;;;1.00;1.00;;;-0.90;99.90;;;;;;4965727;29;20211;-78
2023/01/18 07:31:23;;;;;;;0.90;0.90;;;-0.80;99.90;;;;;;4965980;28;20293;-78
2023/01/18 07:33:51;;;;;;;0.95;0.95;;;-0.80;99.90;;;;;;4965735;29;20193;-78
2023/01/18 07:36:19;;;;;;;10.48;5.10;;;-0.80;99.90;;;;;;4965837;29;20227;-78
2023/01/18 07:38:47;;;;;;;4.82;3.33;;;-0.80;99.90;;;;;;4966924;29;20694;-78
2023/01/18 07:41:16;;;;;;;7.75;3.42;;;-0.80;99.90;;;;;;4965539;29;20695;-78
2023/01/18 07:43:44;;;;;;;2.40;2.20;;;-0.80;99.90;;;;;;4965454;29;20204;-78
2023/01/18 07:46:14;;;;;;;5.20;3.08;;;-0.80;99.90;;;;;;4966248;29;20235;-78
2023/01/18 07:48:43;;;;;;;7.95;4.15;;;-0.80;99.90;;;;;;4965749;29;20212;-78
2023/01/18 07:51:10;;;;;;;2.78;1.95;;;-0.80;99.90;;;;;;4959288;29;20204;-77
2023/01/18 07:53:38;;;;;;;5.40;3.05;;;-0.70;99.90;;;;;;4957475;29;20204;-77
2023/01/18 07:56:07;;;;;;;2.22;2.03;;;-0.70;99.90;;;;;;4957084;29;20228;-77
2023/01/18 07:58:34;;;;;;;8.32;4.53;;;-0.70;99.90;;;;;;4956784;29;20630;-77
2023/01/18 08:01:04;;;;;;;10.88;4.63;;;-0.70;99.90;;;;;;4957054;29;20231;-77
2023/01/18 08:03:31;;;;;;;8.98;3.78;;;-0.70;99.90;;;;;;4956959;29;20632;-77
2023/01/18 08:06:00;;;;;;;3.58;2.28;;;-0.70;99.90;;;;;;4957185;29;20224;-78
2023/01/18 08:08:27;;;;;;;3.03;2.17;;;-0.60;99.90;;;;;;4957535;29;20215;-78
2023/01/18 08:10:55;;;;;;;4.85;2.72;;;-0.60;99.90;;;;;;4957093;29;20572;-77
2023/01/18 08:13:22;;;;;;;3.17;2.80;;;-0.60;99.90;;;;;;4957700;29;20235;-77
2023/01/18 08:15:49;;;;;;;6.57;3.80;;;-0.50;99.90;;;;;;4958246;29;20231;-78
2023/01/18 08:18:15;;;;;;;7.97;3.95;;;-0.50;99.90;;;;;;4957493;29;20215;-77
2023/01/18 08:20:43;;;;;;;3.42;3.10;;;-0.50;99.90;;;;;;4957552;29;20232;-78
2023/01/18 08:23:11;;;;;;;2.85;1.60;;;-0.40;99.90;;;;;;4957713;29;20568;-78
2023/01/18 08:25:39;;;;;;;9.25;4.97;;;-0.40;99.90;;;;;;4957615;29;20212;-78
2023/01/18 08:28:06;;;;;;;4.25;2.35;;;-0.30;99.90;;;;;;4958051;29;20204;-78
2023/01/18 08:30:35;;;;;;;12.52;5.80;;;-0.30;99.90;;;;;;4957040;29;20200;-77
2023/01/18 08:33:03;;;;;;;8.82;5.47;;;-0.20;99.90;;;;;;4957290;29;20204;-77
2023/01/18 08:35:32;;;;;;;20.55;10.32;;;-0.20;99.90;;;;;;4957384;29;20659;-78
2023/01/18 08:38:00;;;;;;;3.33;2.63;;;-0.10;99.90;;;;;;4957103;29;20236;-77
2023/01/18 08:40:28;;;;;;;2.05;1.95;;;-0.10;99.90;;;;;;4957030;29;20207;-77
2023/01/18 08:42:56;;;;;;;1.60;1.50;;;0.00;99.90;;;;;;4956488;28;20290;-77
2023/01/18 08:45:23;;;;;;;1.60;1.55;;;0.00;99.90;;;;;;4956654;29;20200;-77
2023/01/18 08:47:56;;;;;;;1.80;1.70;;;0.00;99.90;;;;;;4956459;29;20223;-77
2023/01/18 08:50:22;;;;;;;1.58;1.50;;;0.00;99.90;;;;;;4957056;29;20292;-78
2023/01/18 08:52:51;;;;;;;1.80;1.70;;;0.00;99.90;;;;;;4959764;29;20204;-78
2023/01/18 08:55:18;;;;;;;1.73;1.63;;;0.10;99.90;;;;;;4963502;29;20671;-78
2023/01/18 08:57:46;;;;;;;1.60;1.60;;;0.20;99.90;;;;;;4963683;29;20228;-77
2023/01/18 09:00:14;;;;;;;2.20;2.00;;;0.10;99.90;;;;;;4957519;29;20211;-77
2023/01/18 09:02:41;;;;;;;1.50;1.50;;;0.10;99.90;;;;;;4958511;29;20228;-77
2023/01/18 09:05:08;;;;;;;1.20;1.20;;;0.10;99.90;;;;;;4958302;29;20213;-79
2023/01/18 09:07:35;;;;;;;1.50;1.40;;;0.10;99.90;;;;;;4955970;29;20220;-79
2023/01/18 09:10:03;;;;;;;1.27;1.27;;;0.10;99.90;;;;;;4956219;29;20211;-79
2023/01/18 09:12:33;;;;;;;1.52;1.42;;;0.10;99.90;;;;;;4955736;29;20200;-79
2023/01/18 09:15:01;;;;;;;1.25;1.25;;;0.20;99.90;;;;;;4956301;29;20204;-79
2023/01/18 09:17:28;;;;;;;1.58;1.48;;;0.10;99.90;;;;;;4959285;29;20227;-79
2023/01/18 09:19:55;;;;;;;1.20;1.20;;;0.00;99.90;;;;;;4960482;29;20203;-79
2023/01/18 09:22:23;;;;;;;1.63;1.63;;;0.00;99.90;;;;;;4960996;29;20279;-79
2023/01/18 09:24:49;;;;;;;2.00;1.75;;;0.10;99.90;;;;;;4956619;29;20207;-77
2023/01/18 09:27:16;;;;;;;1.83;1.70;;;0.10;99.90;;;;;;4956254;29;20224;-79
2023/01/18 09:29:45;;;;;;;1.77;1.60;;;0.20;99.90;;;;;;4959860;29;20204;-79
2023/01/18 09:32:13;;;;;;;1.45;1.42;;;0.20;99.90;;;;;;4960172;29;20200;-79
2023/01/18 09:34:40;;;;;;;1.83;1.67;;;0.20;99.90;;;;;;4957916;29;20668;-78
2023/01/18 09:37:07;;;;;;;1.77;1.67;;;0.20;99.90;;;;;;4959979;29;20224;-80
2023/01/18 09:39:34;;;;;;;2.45;2.25;;;0.20;99.90;;;;;;4964750;29;20214;-79
2023/01/18 09:42:03;;;;;;;2.30;2.20;;;0.10;99.90;;;;;;4971244;29;20224;-79
2023/01/18 09:44:33;;;;;;;7.28;5.05;;;0.10;99.90;;;;;;4967317;29;20619;-78
2023/01/18 09:47:04;;;;;;;6.85;5.45;;;0.20;99.90;;;;;;4962242;29;20228;-78
2023/01/18 09:49:37;;;;;;;2.92;2.60;;;0.10;99.90;;;;;;4966637;29;20192;-79
2023/01/18 09:52:21;;;;;;;2.70;2.60;;;0.10;99.90;;;;;;4964531;29;20236;-79
2023/01/18 09:54:54;;;;;;;2.65;2.45;;;0.20;99.90;;;;;;4962045;28;20181;-77
2023/01/18 09:57:31;;;;;;;2.13;2.03;;;0.10;99.90;;;;;;4961030;29;20224;-78
2023/01/18 10:00:03;;;;;;;2.22;2.13;;;0.10;99.90;;;;;;4962529;29;20215;-77
2023/01/18 10:02:37;;;;;;;2.63;2.42;;;0.20;99.90;;;;;;4959232;29;20219;-77
2023/01/18 10:05:10;;;;;;;2.30;1.50;;;0.20;99.90;;;;;;4959733;29;20215;-76
2023/01/18 10:07:45;;;;;;;1.70;1.60;;;0.30;99.90;;;;;;4959212;29;20220;-76
2023/01/18 10:10:15;;;;;;;1.88;1.77;;;0.30;99.90;;;;;;4959318;29;20526;-76
2023/01/18 10:12:47;;;;;;;4.30;2.08;;;0.30;99.90;;;;;;4963379;29;20224;-76
2023/01/18 10:15:21;;;;;;;2.38;2.10;;;0.30;99.90;;;;;;4965471;29;20255;-76
2023/01/18 10:17:49;;;;;;;2.10;2.00;;;0.30;99.90;;;;;;4960844;29;20282;-76
2023/01/18 10:20:27;;;;;;;2.40;2.25;;;0.40;99.90;;;;;;4958708;29;20693;-77
2023/01/18 10:23:00;;;;;;;2.25;1.80;;;0.50;99.90;;;;;;4958976;29;20212;-76
2023/01/18 10:25:32;;;;;;;6.38;2.10;;;0.50;99.90;;;;;;4959034;29;20196;-76
2023/01/18 10:28:24;;;;;;;2.50;1.77;;;0.50;99.90;;;;;;4958928;29;20195;-77
2023/01/18 10:31:02;;;;;;;1.35;1.35;;;0.50;99.90;;;;;;4959130;29;20189;-77
2023/01/18 10:33:32;;;;;;;1.70;1.60;;;0.60;99.90;;;;;;4959037;29;20223;-77
2023/01/18 10:36:05;;;;;;;1.70;1.60;;;0.70;99.90;;;;;;4958503;29;20711;-77
2023/01/18 10:38:32;;;;;;;2.10;1.73;;;0.90;99.90;;;;;;4959271;29;20184;-76
2023/01/18 10:41:00;;;;;;;3.95;1.65;;;0.90;99.90;;;;;;4958926;29;20215;-77
2023/01/18 10:43:28;;;;;;;1.70;1.60;;;1.00;99.90;;;;;;4958606;29;20227;-77
2023/01/18 10:45:55;;;;;;;2.33;1.73;;;1.10;99.90;;;;;;4958529;29;20228;-77
2023/01/18 10:48:31;;;;;;;4.18;1.70;;;1.10;99.90;;;;;;4958322;29;20207;-76
2023/01/18 10:51:01;;;;;;;3.92;1.88;;;1.10;99.90;;;;;;4958758;29;20192;-76
2023/01/18 10:53:31;;;;;;;1.50;1.40;;;1.10;99.90;;;;;;4958507;29;20261;-76
2023/01/18 10:56:02;;;;;;;1.73;1.42;;;1.30;99.90;;;;;;4958485;29;20220;-77
2023/01/18 10:58:32;;;;;;;1.90;1.58;;;1.30;99.90;;;;;;4958268;29;20216;-77
2023/01/18 11:01:02;;;;;;;1.52;1.40;;;1.40;99.90;;;;;;4958384;29;20197;-76
2023/01/18 11:03:30;;;;;;;2.13;1.63;;;1.40;99.90;;;;;;4958131;29;20220;-76
2023/01/18 11:06:06;;;;;;;1.67;1.58;;;1.40;99.90;;;;;;4957018;28;20231;-77
2023/01/18 11:08:35;;;;;;;4.57;2.35;;;1.30;99.90;;;;;;4958223;29;20192;-76
2023/01/18 11:11:04;;;;;;;2.00;1.90;;;1.40;99.90;;;;;;4958214;29;20204;-76
2023/01/18 11:13:34;;;;;;;2.38;2.25;;;1.40;99.90;;;;;;4958352;29;20295;-75
2023/01/18 11:16:19;;;;;;;34.25;12.95;;;1.50;99.90;;;;;;4958323;29;20235;-77
2023/01/18 11:18:56;;;;;;;8.45;4.60;;;1.60;99.90;;;;;;4958159;29;20216;-77
2023/01/18 11:21:30;;;;;;;2.47;1.70;;;1.70;99.90;;;;;;4957999;29;20283;-77
2023/01/18 11:23:57;;;;;;;6.35;4.90;;;1.70;99.90;;;;;;4957752;29;20664;-77
2023/01/18 11:26:24;;;;;;;2.53;1.92;;;1.60;99.90;;;;;;4958310;29;20232;-77
2023/01/18 11:28:58;;;;;;;1.52;1.40;;;1.50;99.90;;;;;;4957886;29;20188;-77
2023/01/18 11:31:26;;;;;;;3.22;2.20;;;1.30;99.90;;;;;;4957785;29;20656;-77
2023/01/18 11:33:55;;;;;;;1.92;1.83;;;1.40;99.90;;;;;;4957645;29;20204;-77
2023/01/18 11:36:38;;;;;;;2.70;1.80;;;1.30;99.90;;;;;;4957831;29;20228;-77
2023/01/18 11:39:27;;;;;;;1.63;1.52;;;1.40;99.90;;;;;;4959830;29;20203;-81
2023/01/18 11:42:14;;;;;;;3.33;1.52;;;1.40;99.90;;;;;;4960948;29;20229;-76
2023/01/18 11:44:47;;;;;;;1.40;1.40;;;1.50;99.90;;;;;;4957401;29;20208;-77
2023/01/18 11:47:20;;;;;;;1.52;1.42;;;1.70;99.90;;;;;;4957598;29;20315;-77
2023/01/18 11:49:54;;;;;;;1.80;1.70;;;1.70;99.90;;;;;;4962059;29;20232;-83
2023/01/18 11:52:34;;;;;;;1.55;1.45;;;1.70;99.90;;;;;;4961906;29;20666;-83
2023/01/18 11:55:07;;;;;;;1.83;1.73;;;1.60;99.90;;;;;;4962381;29;20192;-83
2023/01/18 11:57:34;;;;;;;2.05;1.95;;;1.40;99.90;;;;;;4961772;29;20224;-83
2023/01/18 12:00:00;;;;;;;1.83;1.73;;;1.20;99.90;;;;;;4961896;29;20226;-82
2023/01/18 12:02:57;;;;;;;2.28;1.65;;;1.00;99.90;;;;;;4961953;29;20224;-82
2023/01/18 12:05:37;;;;;;;2.40;2.20;;;0.80;99.90;;;;;;4962147;29;20211;-82
2023/01/18 12:08:23;;;;;;;1.73;1.65;;;0.80;99.90;;;;;;4962344;29;20191;-83
2023/01/18 12:11:03;;;;;;;1.77;1.67;;;0.70;99.90;;;;;;4962893;29;20263;-83
2023/01/18 12:13:35;;;;;;;2.33;2.08;;;0.60;99.90;;;;;;4962186;29;20191;-83
2023/01/18 12:16:12;;;;;;;1.90;1.80;;;0.50;99.90;;;;;;4961477;29;20313;-83
2023/01/18 12:19:20;;;;;;;3.60;1.98;;;0.50;99.90;;;;;;4959966;29;20218;-83
2023/01/18 12:22:09;;;;;;;1.77;1.77;;;0.60;99.90;;;;;;4961285;29;20188;-83
2023/01/18 12:24:56;;;;;;;3.53;1.60;;;0.60;99.90;;;;;;4983556;23;20238;-73
2023/01/18 12:27:33;;;;;;;2.00;1.80;;;0.60;99.90;;;;;;4976022;28;20192;-72
2023/01/18 12:30:38;;;;;;;2.20;2.10;;;0.60;99.90;;;;;;4976047;28;20203;-72
2023/01/18 12:33:25;;;;;;;2.30;2.03;;;0.40;99.90;;;;;;4935983;28;20207;-73
2023/01/18 12:36:19;;;;;;;2.15;1.88;;;0.40;99.90;;;;;;4975870;28;20534;-73
2023/01/18 12:38:51;;;;;;;3.97;2.17;;;0.50;99.90;;;;;;4963360;28;20210;-73
2023/01/18 12:41:34;;;;;;;4.15;2.13;;;0.60;99.90;;;;;;4975795;28;20192;-73
2023/01/18 12:44:27;;;;;;;2.92;1.85;;;0.50;99.90;;;;;;4975621;28;20227;-73
2023/01/18 12:47:06;;;;;;;1.80;1.70;;;0.60;99.90;;;;;;4975351;28;20183;-73
2023/01/18 12:49:40;;;;;;;2.70;1.83;;;0.70;99.90;;;;;;4975448;28;20191;-74
2023/01/18 12:52:06;;;;;;;3.13;2.10;;;0.80;99.90;;;;;;4975347;28;20188;-73
2023/01/18 12:54:38;;;;;;;2.55;1.83;;;0.90;99.90;;;;;;4975019;28;20219;-73
2023/01/18 12:57:07;;;;;;;1.95;1.85;;;0.90;99.90;;;;;;4975200;28;20195;-73
2023/01/18 12:59:40;;;;;;;4.93;3.10;;;0.80;99.90;;;;;;4975131;28;20210;-73
2023/01/18 13:02:23;;;;;;;4.40;3.30;;;0.90;99.90;;;;;;4974887;28;20184;-73
2023/01/18 13:04:54;;;;;;;2.00;1.67;;;0.90;99.90;;;;;;4974572;28;20231;-73
2023/01/18 13:07:32;;;;;;;1.80;1.70;;;1.00;99.90;;;;;;4974923;28;20289;-73
2023/01/18 13:10:00;;;;;;;1.80;1.80;;;0.80;99.90;;;;;;4975047;28;20242;-73
2023/01/18 13:12:29;;;;;;;2.03;1.92;;;0.70;99.90;;;;;;4974772;28;20659;-73
2023/01/18 13:15:04;;;;;;;2.08;1.70;;;0.70;99.90;;;;;;4975153;28;20223;-74
2023/01/18 13:17:39;;;;;;;2.10;2.00;;;0.70;99.90;;;;;;4975281;28;20195;-73
2023/01/18 13:20:15;;;;;;;4.32;1.98;;;0.50;99.90;;;;;;4975136;28;20271;-73
2023/01/18 13:22:52;;;;;;;1.60;1.60;;;0.40;99.90;;;;;;4975220;28;20207;-73
2023/01/18 13:25:37;;;;;;;2.65;2.45;;;0.40;99.90;;;;;;4974623;28;20265;-73
2023/01/18 13:28:16;;;;;;;1.85;1.70;;;0.30;99.90;;;;;;4974611;28;20532;-73
2023/01/18 13:30:51;;;;;;;4.25;1.90;;;0.30;99.90;;;;;;4974880;28;20219;-73
2023/01/18 13:33:22;;;;;;;2.42;1.60;;;0.20;99.90;;;;;;4974823;28;20218;-73
2023/01/18 13:35:53;;;;;;;5.28;2.67;;;0.20;99.90;;;;;;4975112;28;20234;-73
2023/01/18 13:38:22;;;;;;;2.05;1.95;;;0.20;99.90;;;;;;4974603;28;20195;-73
2023/01/18 13:40:54;;;;;;;1.70;1.60;;;0.20;99.90;;;;;;4974932;28;20203;-73
2023/01/18 13:44:01;;;;;;;2.60;2.40;;;0.20;99.90;;;;;;4974651;28;20282;-74
2023/01/18 13:46:30;;;;;;;2.20;2.00;;;0.20;99.90;;;;;;4966457;28;20206;-75
2023/01/18 13:48:57;;;;;;;2.30;2.10;;;0.20;99.90;;;;;;4974338;28;20659;-74
2023/01/18 13:51:50;;;;;;;1.80;1.70;;;0.20;99.90;;;;;;4974368;28;20670;-74
2023/01/18 13:54:56;;;;;;;1.70;1.58;;;0.10;99.90;;;;;;4974632;28;20222;-74
2023/01/18 13:57:24;;;;;;;4.68;2.13;;;0.10;99.90;;;;;;4974248;28;20207;-74
2023/01/18 13:59:52;;;;;;;1.95;1.85;;;0.00;99.90;;;;;;4974591;28;20297;-74
2023/01/18 14:02:25;;;;;;;2.00;1.90;;;0.00;99.90;;;;;;4974425;28;20298;-74
2023/01/18 14:05:02;;;;;;;1.80;1.70;;;-0.10;99.90;;;;;;4974612;28;20250;-74
2023/01/18 14:07:36;;;;;;;1.80;1.70;;;0.00;99.90;;;;;;4977656;28;20238;-74
2023/01/18 14:10:07;;;;;;;2.60;1.80;;;0.00;99.90;;;;;;4982092;28;20215;-73
2023/01/18 14:12:53;;;;;;;3.05;1.85;;;0.00;99.90;;;;;;4981419;28;20283;-73
2023/01/18 14:15:31;;;;;;;1.80;1.70;;;0.00;99.90;;;;;;4980796;28;20229;-73
2023/01/18 14:17:58;;;;;;;2.17;1.73;;;0.00;99.90;;;;;;4978857;28;20666;-73
2023/01/18 14:20:48;;;;;;;2.00;1.90;;;0.00;99.90;;;;;;4980298;28;20210;-74
2023/01/18 14:23:33;;;;;;;1.92;1.83;;;0.00;99.90;;;;;;4969727;28;20224;-73
2023/01/18 14:26:03;;;;;;;5.57;1.92;;;0.10;99.90;;;;;;4980484;28;20587;-72
2023/01/18 14:28:36;;;;;;;3.25;1.70;;;0.00;99.90;;;;;;4980158;28;20203;-75
2023/01/18 14:31:06;;;;;;;2.38;2.00;;;-0.10;99.90;;;;;;4979883;28;20635;-72
2023/01/18 14:33:36;;;;;;;1.98;1.88;;;-0.10;99.90;;;;;;4978258;28;20212;-75
2023/01/18 14:36:05;;;;;;;7.28;2.17;;;-0.10;99.90;;;;;;4975042;28;20207;-76
2023/01/18 14:38:32;;;;;;;2.63;2.42;;;-0.20;99.90;;;;;;4976400;28;20571;-77
2023/01/18 14:41:04;;;;;;;6.85;1.83;;;-0.20;99.90;;;;;;4982765;28;20207;-73
2023/01/18 14:43:34;;;;;;;9.95;5.80;;;-0.30;99.90;;;;;;4978598;28;20319;-74
2023/01/18 14:46:04;;;;;;;13.45;5.70;;;-0.30;99.90;;;;;;4978067;28;20606;-74
2023/01/18 14:48:34;;;;;;;2.80;2.60;;;-0.30;99.90;;;;;;4978045;28;20210;-74
2023/01/18 14:51:03;;;;;;;1.90;1.80;;;-0.30;99.90;;;;;;4979035;28;20187;-74
2023/01/18 14:53:34;;;;;;;3.33;2.97;;;-0.30;99.90;;;;;;4982461;28;20290;-74
2023/01/18 14:56:05;;;;;;;2.63;2.42;;;-0.30;99.90;;;;;;4977927;28;20188;-75
2023/01/18 14:58:37;;;;;;;3.80;3.25;;;-0.40;99.90;;;;;;4977983;28;20187;-75
2023/01/18 15:01:07;;;;;;;4.53;2.72;;;-0.40;99.90;;;;;;4977565;28;20195;-75
2023/01/18 15:03:35;;;;;;;2.60;2.40;;;-0.40;99.90;;;;;;4977620;28;20227;-75
2023/01/18 15:06:10;;;;;;;2.60;2.33;;;-0.40;99.90;;;;;;4977829;28;20214;-75
2023/01/18 15:08:39;;;;;;;2.75;2.22;;;-0.40;99.90;;;;;;4977961;28;20195;-74
2023/01/18 15:11:07;;;;;;;2.25;2.10;;;-0.50;99.90;;;;;;4977577;28;20203;-74
2023/01/18 15:13:46;;;;;;;2.28;2.17;;;-0.50;99.90;;;;;;4977555;28;20223;-74
2023/01/18 15:16:13;;;;;;;3.20;3.00;;;-0.50;99.90;;;;;;4977773;28;20226;-75
2023/01/18 15:18:41;;;;;;;3.13;2.90;;;-0.50;99.90;;;;;;4978316;28;20250;-74
2023/01/18 15:21:16;;;;;;;3.25;2.80;;;-0.60;99.90;;;;;;4977743;28;20236;-73
2023/01/18 15:23:43;;;;;;;4.80;2.92;;;-0.60;99.90;;;;;;4977508;28;20686;-74
2023/01/18 15:26:09;;;;;;;3.88;2.65;;;-0.60;99.90;;;;;;4977642;28;20207;-75
2023/01/18 15:28:39;;;;;;;3.05;2.75;;;-0.70;99.90;;;;;;4977397;28;20634;-75
2023/01/18 15:31:12;;;;;;;2.80;2.60;;;-0.70;99.90;;;;;;4977028;28;20207;-76
2023/01/18 15:33:39;;;;;;;4.80;3.03;;;-0.70;99.90;;;;;;4977266;28;20224;-75
2023/01/18 15:36:08;;;;;;;2.60;2.40;;;-0.70;99.90;;;;;;4977153;28;20202;-77
2023/01/18 15:38:35;;;;;;;3.08;2.42;;;-0.80;99.90;;;;;;4977407;28;20262;-77
2023/01/18 15:41:05;;;;;;;3.05;2.47;;;-0.80;99.90;;;;;;4977027;28;20294;-76
2023/01/18 15:43:35;;;;;;;3.38;2.30;;;-0.80;99.90;;;;;;4976748;28;20223;-76
2023/01/18 15:46:07;;;;;;;3.42;3.13;;;-0.80;99.90;;;;;;4976884;28;20216;-76
2023/01/18 15:48:38;;;;;;;3.17;2.72;;;-0.90;99.90;;;;;;4979887;28;20562;-76
2023/01/18 15:51:08;;;;;;;2.95;2.75;;;-0.90;99.90;;;;;;4979344;28;20198;-76
2023/01/18 15:53:37;;;;;;;3.42;2.70;;;-0.90;99.90;;;;;;4979270;28;20223;-76
2023/01/18 15:56:07;;;;;;;3.45;3.15;;;-0.90;99.90;;;;;;4980319;28;20207;-76
2023/01/18 15:58:36;;;;;;;2.97;2.75;;;-1.00;99.90;;;;;;4979331;28;20199;-75
2023/01/18 16:01:07;;;;;;;4.15;2.92;;;-1.00;99.90;;;;;;4979646;28;20207;-76
2023/01/18 16:03:36;;;;;;;4.55;3.55;;;-1.00;99.90;;;;;;4978197;28;20251;-76
2023/01/18 16:06:11;;;;;;;2.90;2.70;;;-1.00;99.90;;;;;;4988428;28;20285;-76
2023/01/18 16:08:56;;;;;;;4.32;2.83;;;-1.00;99.90;;;;;;4983100;28;20203;-77
2023/01/18 16:11:28;;;;;;;2.67;2.47;;;-1.00;99.90;;;;;;4977657;28;20188;-78
2023/01/18 16:13:58;;;;;;;2.85;2.70;;;-1.10;99.90;;;;;;4976703;28;20227;-77
2023/01/18 16:16:26;;;;;;;3.35;3.15;;;-1.10;99.90;;;;;;4976722;28;20210;-76
2023/01/18 16:19:04;;;;;;;2.85;2.65;;;-1.10;99.90;;;;;;4976398;28;20215;-76
2023/01/18 16:21:40;;;;;;;2.80;2.60;;;-1.20;99.90;;;;;;4976380;28;20191;-75
2023/01/18 16:24:22;;;;;;;3.38;3.10;;;-1.20;99.90;;;;;;4975787;28;20227;-77
2023/01/18 16:26:49;;;;;;;2.83;2.40;;;-1.20;99.90;;;;;;4976547;28;20199;-75
2023/01/18 16:29:16;;;;;;;2.28;2.17;;;-1.20;99.90;;;;;;4976323;28;20211;-76
2023/01/18 16:31:44;;;;;;;4.85;2.78;;;-1.20;99.90;;;;;;4976358;28;20226;-77
2023/01/18 16:34:19;;;;;;;3.72;3.40;;;-1.20;99.90;;;;;;4977045;28;20227;-77
2023/01/18 16:36:46;;;;;;;5.15;3.20;;;-1.30;99.90;;;;;;4976008;28;20184;-76
2023/01/18 16:39:13;;;;;;;4.80;2.75;;;-1.30;99.90;;;;;;4976133;28;20199;-77
2023/01/18 16:41:41;;;;;;;4.40;2.70;;;-1.30;99.90;;;;;;4975577;28;20208;-76
2023/01/18 16:44:11;;;;;;;3.42;2.72;;;-1.30;99.90;;;;;;4979333;28;20228;-79
2023/01/18 16:46:38;;;;;;;2.80;2.45;;;-1.30;99.90;;;;;;4981144;28;20200;-79
2023/01/18 16:49:10;;;;;;;3.95;2.75;;;-1.30;99.90;;;;;;4976922;28;20207;-76
2023/01/18 16:51:37;;;;;;;3.38;2.50;;;-1.30;99.90;;;;;;4976315;28;20187;-76
2023/01/18 16:54:04;;;;;;;2.83;2.47;;;-1.30;99.90;;;;;;4975831;28;20222;-77
2023/01/18 16:56:30;;;;;;;2.65;2.45;;;-1.30;99.90;;;;;;4975812;28;20543;-77
2023/01/18 16:58:57;;;;;;;2.72;2.63;;;-1.40;99.90;;;;;;4975339;28;20203;-75
2023/01/18 17:01:24;;;;;;;3.20;2.97;;;-1.40;99.90;;;;;;4975671;28;20199;-75
2023/01/18 17:03:50;;;;;;;3.50;3.20;;;-1.40;99.90;;;;;;4973968;28;20571;-77
2023/01/18 17:06:20;;;;;;;3.08;2.88;;;-1.40;99.90;;;;;;4975371;28;20230;-75
2023/01/18 17:08:48;;;;;;;2.83;2.72;;;-1.40;99.90;;;;;;4975906;28;20207;-74
2023/01/18 17:11:16;;;;;;;3.20;2.90;;;-1.40;99.90;;;;;;4975357;28;20200;-74
2023/01/18 17:13:44;;;;;;;4.25;3.85;;;-1.40;99.90;;;;;;4976731;28;20237;-74
2023/01/18 17:16:15;;;;;;;7.35;4.07;;;-1.40;99.90;;;;;;4976417;28;20239;-74
2023/01/18 17:18:42;;;;;;;9.85;4.93;;;-1.40;99.90;;;;;;4975622;28;20191;-75
2023/01/18 17:21:10;;;;;;;14.27;6.20;;;-1.40;99.90;;;;;;4975319;28;20210;-76
2023/01/18 17:23:39;;;;;;;8.63;3.83;;;-1.40;99.90;;;;;;4974882;28;20227;-75
2023/01/18 17:26:06;;;;;;;5.15;3.80;;;-1.40;99.90;;;;;;4975068;28;20188;-76
2023/01/18 17:28:32;;;;;;;3.90;3.60;;;-1.40;99.90;;;;;;4974970;28;20242;-76
2023/01/18 17:31:00;;;;;;;3.20;3.00;;;-1.40;99.90;;;;;;4975031;28;20274;-75
2023/01/18 17:33:27;;;;;;;3.75;3.42;;;-1.40;99.90;;;;;;4974947;28;20258;-73
2023/01/18 17:35:54;;;;;;;4.07;3.83;;;-1.40;99.90;;;;;;4974734;28;20203;-73
2023/01/18 17:38:22;;;;;;;4.75;4.35;;;-1.40;99.90;;;;;;4974888;28;20211;-73
2023/01/18 17:40:50;;;;;;;4.40;4.03;;;-1.40;99.90;;;;;;4974555;28;20214;-74
2023/01/18 17:43:17;;;;;;;5.22;4.25;;;-1.40;99.90;;;;;;4974900;28;20203;-74
2023/01/18 17:45:44;;;;;;;4.60;4.18;;;-1.40;99.90;;;;;;4974858;28;20227;-73
2023/01/18 17:48:11;;;;;;;6.70;4.13;;;-1.40;99.90;;;;;;4975263;28;20254;-75
2023/01/18 17:50:39;;;;;;;3.83;3.47;;;-1.40;99.90;;;;;;4974772;28;20203;-73
2023/01/18 17:53:06;;;;;;;4.72;4.30;;;-1.40;99.90;;;;;;4974729;28;20207;-73
2023/01/18 17:55:33;;;;;;;6.55;4.40;;;-1.30;99.90;;;;;;4974594;28;20845;-74
2023/01/18 17:58:01;;;;;;;4.78;4.38;;;-1.30;99.90;;;;;;4974678;28;20675;-75
2023/01/18 18:00:27;;;;;;;9.15;4.65;;;-1.30;99.90;;;;;;4975140;28;20203;-76
2023/01/18 18:02:56;;;;;;;6.97;4.82;;;-1.40;99.90;;;;;;4975361;28;20203;-76
2023/01/18 18:05:22;;;;;;;5.03;4.53;;;-1.40;99.90;;;;;;4974950;28;20234;-75